sensor_id;sensor_type;location;lat;lon;timestamp;P1;durP1;ratioP1;P2;durP2;ratioP2
32451;SDS011;45528;52.102;5.242;2023-04-28T00:03:09;10.1;;;6.1;;
32451;SDS011;45528;52.102;5.242;2023-04-28T00:04:45;10.9;;;6.0;;
32451;SDS011;45528;52.102;5.242;2023-04-28T00:06:21;9.1;;;5.6;;
32451;SDS011;45528;52.102;5.242;2023-04-28T00:09:33;9.4;;;5.6;;
32451;SDS011;45528;52.102;5.242;2023-04-28T00:11:09;13.7;;;5.9;;
32451;SDS011;45528;52.102;5.242;2023-04-28T00:12:46;12.5;;;6.1;;
32451;SDS011;45528;52.102;5.242;2023-04-28T00:16:00;10.0;;;5.7;;
32451;SDS011;45528;52.102;5.242;2023-04-28T00:17:36;8.2;;;5.4;;
32451;SDS011;45528;52.102;5.242;2023-04-28T00:19:12;9.5;;;5.6;;
32451;SDS011;45528;52.102;5.242;2023-04-28T00:20:48;9.4;;;6.1;;
32451;SDS011;45528;52.102;5.242;2023-04-28T00:24:00;13.8;;;6.0;;
32451;SDS011;45528;52.102;5.242;2023-04-28T00:25:36;9.4;;;5.6;;
32451;SDS011;45528;52.102;5.242;2023-04-28T00:27:13;11.2;;;6.0;;
32451;SDS011;45528;52.102;5.242;2023-04-28T00:30:25;11.2;;;6.1;;
32451;SDS011;45528;52.102;5.242;2023-04-28T00:32:02;11.2;;;6.1;;
32451;SDS011;45528;52.102;5.242;2023-04-28T00:33:38;10.7;;;5.4;;
32451;SDS011;45528;52.102;5.242;2023-04-28T00:36:51;10.4;;;5.8;;
32451;SDS011;45528;52.102;5.242;2023-04-28T00:38:27;12.8;;;5.3;;
32451;SDS011;45528;52.102;5.242;2023-04-28T00:40:03;9.9;;;5.9;;
32451;SDS011;45528;52.102;5.242;2023-04-28T00:41:40;10.0;;;5.2;;
32451;SDS011;45528;52.102;5.242;2023-04-28T00:44:52;10.0;;;5.8;;
32451;SDS011;45528;52.102;5.242;2023-04-28T00:46:29;8.81;;;5.5;;
32451;SDS011;45528;52.102;5.242;2023-04-28T00:48:07;9.31;;;5.5;;
32451;SDS011;45528;52.102;5.242;2023-04-28T00:51:22;10.4;;;5.7;;
32451;SDS011;45528;52.102;5.242;2023-04-28T00:52:58;7.0;;;5.11;;
32451;SDS011;45528;52.102;5.242;2023-04-28T00:54:36;9.0;;;5.7;;
32451;SDS011;45528;52.102;5.242;2023-04-28T00:57:48;10.1;;;5.7;;
32451;SDS011;45528;52.102;5.242;2023-04-28T00:59:26;8.6;;;5.7;;
32451;SDS011;45528;52.102;5.242;2023-04-28T01:01:03;10.7;;;5.9;;
32451;SDS011;45528;52.102;5.242;2023-04-28T01:02:39;11.5;;;5.6;;
32451;SDS011;45528;52.102;5.242;2023-04-28T01:05:55;11.4;;;5.3;;
32451;SDS011;45528;52.102;5.242;2023-04-28T01:07:32;7.8;;;5.2;;
32451;SDS011;45528;52.102;5.242;2023-04-28T01:09:08;8.5;;;5.5;;
32451;SDS011;45528;52.102;5.242;2023-04-28T01:12:20;9.5;;;5.4;;
32451;SDS011;45528;52.102;5.242;2023-04-28T01:13:57;8.1;;;5.3;;
32451;SDS011;45528;52.102;5.242;2023-04-28T01:15:33;8.71;;;5.3;;
32451;SDS011;45528;52.102;5.242;2023-04-28T01:18:47;9.0;;;5.3;;
32451;SDS011;45528;52.102;5.242;2023-04-28T01:20:23;9.0;;;5.2;;
32451;SDS011;45528;52.102;5.242;2023-04-28T01:21:59;8.9;;;5.0;;
32451;SDS011;45528;52.102;5.242;2023-04-28T01:23:35;9.0;;;5.2;;
32451;SDS011;45528;52.102;5.242;2023-04-28T01:26:47;13.1;;;5.7;;
32451;SDS011;45528;52.102;5.242;2023-04-28T01:28:23;8.71;;;5.3;;
32451;SDS011;45528;52.102;5.242;2023-04-28T01:29:59;8.1;;;5.4;;
32451;SDS011;45528;52.102;5.242;2023-04-28T01:33:12;8.5;;;5.0;;
32451;SDS011;45528;52.102;5.242;2023-04-28T01:34:48;8.0;;;5.2;;
32451;SDS011;45528;52.102;5.242;2023-04-28T01:36:24;9.1;;;5.4;;
32451;SDS011;45528;52.102;5.242;2023-04-28T01:39:37;11.1;;;5.5;;
32451;SDS011;45528;52.102;5.242;2023-04-28T01:41:13;9.0;;;5.0;;
32451;SDS011;45528;52.102;5.242;2023-04-28T01:42:49;8.5;;;5.2;;
32451;SDS011;45528;52.102;5.242;2023-04-28T01:44:25;10.6;;;5.0;;
32451;SDS011;45528;52.102;5.242;2023-04-28T01:47:38;7.2;;;4.7;;
32451;SDS011;45528;52.102;5.242;2023-04-28T01:49:14;8.31;;;5.2;;
32451;SDS011;45528;52.102;5.242;2023-04-28T01:50:50;9.9;;;5.11;;
32451;SDS011;45528;52.102;5.242;2023-04-28T01:54:02;10.7;;;4.8;;
32451;SDS011;45528;52.102;5.242;2023-04-28T01:55:38;8.2;;;5.11;;
32451;SDS011;45528;52.102;5.242;2023-04-28T01:57:14;9.4;;;5.11;;
32451;SDS011;45528;52.102;5.242;2023-04-28T02:00:27;9.0;;;5.11;;
32451;SDS011;45528;52.102;5.242;2023-04-28T02:02:03;9.81;;;4.8;;
32451;SDS011;45528;52.102;5.242;2023-04-28T02:03:39;8.81;;;4.8;;
32451;SDS011;45528;52.102;5.242;2023-04-28T02:06:51;7.6;;;4.91;;
32451;SDS011;45528;52.102;5.242;2023-04-28T02:08:27;7.5;;;5.0;;
32451;SDS011;45528;52.102;5.242;2023-04-28T02:10:03;9.6;;;4.8;;
32451;SDS011;45528;52.102;5.242;2023-04-28T02:11:40;8.31;;;5.0;;
32451;SDS011;45528;52.102;5.242;2023-04-28T02:14:53;8.71;;;5.2;;
32451;SDS011;45528;52.102;5.242;2023-04-28T02:16:29;8.1;;;4.8;;
32451;SDS011;45528;52.102;5.242;2023-04-28T02:18:05;10.4;;;4.7;;
32451;SDS011;45528;52.102;5.242;2023-04-28T02:21:17;8.2;;;4.41;;
32451;SDS011;45528;52.102;5.242;2023-04-28T02:22:53;8.0;;;4.7;;
32451;SDS011;45528;52.102;5.242;2023-04-28T02:24:29;6.9;;;4.61;;
32451;SDS011;45528;52.102;5.242;2023-04-28T02:27:45;7.8;;;4.61;;
32451;SDS011;45528;52.102;5.242;2023-04-28T02:29:21;8.71;;;4.61;;
32451;SDS011;45528;52.102;5.242;2023-04-28T02:31:05;9.21;;;5.11;;
32451;SDS011;45528;52.102;5.242;2023-04-28T02:32:49;10.8;;;4.8;;
32451;SDS011;45528;52.102;5.242;2023-04-28T02:36:01;7.7;;;4.61;;
32451;SDS011;45528;52.102;5.242;2023-04-28T02:37:39;8.9;;;4.5;;
32451;SDS011;45528;52.102;5.242;2023-04-28T02:39:15;6.3;;;4.7;;
32451;SDS011;45528;52.102;5.242;2023-04-28T02:40:56;8.1;;;4.7;;
32451;SDS011;45528;52.102;5.242;2023-04-28T02:44:09;8.1;;;4.7;;
32451;SDS011;45528;52.102;5.242;2023-04-28T02:45:45;8.71;;;4.61;;
32451;SDS011;45528;52.102;5.242;2023-04-28T02:47:21;8.9;;;4.7;;
32451;SDS011;45528;52.102;5.242;2023-04-28T02:50:33;9.9;;;4.91;;
32451;SDS011;45528;52.102;5.242;2023-04-28T02:52:09;7.9;;;4.5;;
32451;SDS011;45528;52.102;5.242;2023-04-28T02:53:46;7.5;;;4.7;;
32451;SDS011;45528;52.102;5.242;2023-04-28T02:56:58;11.1;;;4.8;;
32451;SDS011;45528;52.102;5.242;2023-04-28T02:58:34;8.1;;;4.91;;
32451;SDS011;45528;52.102;5.242;2023-04-28T03:00:11;7.5;;;4.8;;
32451;SDS011;45528;52.102;5.242;2023-04-28T03:01:47;7.4;;;4.91;;
32451;SDS011;45528;52.102;5.242;2023-04-28T03:05:01;10.0;;;4.91;;
32451;SDS011;45528;52.102;5.242;2023-04-28T03:06:36;9.4;;;4.91;;
32451;SDS011;45528;52.102;5.242;2023-04-28T03:08:13;7.1;;;4.61;;
32451;SDS011;45528;52.102;5.242;2023-04-28T03:11:25;11.1;;;5.11;;
32451;SDS011;45528;52.102;5.242;2023-04-28T03:13:01;9.4;;;4.8;;
32451;SDS011;45528;52.102;5.242;2023-04-28T03:14:37;6.5;;;4.61;;
32451;SDS011;45528;52.102;5.242;2023-04-28T03:17:49;9.31;;;5.3;;
32451;SDS011;45528;52.102;5.242;2023-04-28T03:19:25;7.2;;;4.7;;
32451;SDS011;45528;52.102;5.242;2023-04-28T03:21:02;9.31;;;4.5;;
32451;SDS011;45528;52.102;5.242;2023-04-28T03:24:14;10.7;;;4.91;;
32451;SDS011;45528;52.102;5.242;2023-04-28T03:25:50;8.1;;;4.5;;
32451;SDS011;45528;52.102;5.242;2023-04-28T03:27:26;8.31;;;4.41;;
32451;SDS011;45528;52.102;5.242;2023-04-28T03:29:02;9.71;;;4.8;;
32451;SDS011;45528;52.102;5.242;2023-04-28T03:32:14;7.1;;;4.8;;
32451;SDS011;45528;52.102;5.242;2023-04-28T03:33:51;7.3;;;4.8;;
32451;SDS011;45528;52.102;5.242;2023-04-28T03:35:27;9.0;;;4.7;;
32451;SDS011;45528;52.102;5.242;2023-04-28T03:38:39;7.9;;;4.7;;
32451;SDS011;45528;52.102;5.242;2023-04-28T03:40:15;11.2;;;5.0;;
32451;SDS011;45528;52.102;5.242;2023-04-28T03:41:51;9.5;;;4.8;;
32451;SDS011;45528;52.102;5.242;2023-04-28T03:45:04;7.2;;;4.7;;
32451;SDS011;45528;52.102;5.242;2023-04-28T03:46:40;9.71;;;4.3;;
32451;SDS011;45528;52.102;5.242;2023-04-28T03:48:17;10.3;;;5.11;;
32451;SDS011;45528;52.102;5.242;2023-04-28T03:51:29;8.6;;;4.61;;
32451;SDS011;45528;52.102;5.242;2023-04-28T03:53:05;9.0;;;4.8;;
32451;SDS011;45528;52.102;5.242;2023-04-28T03:54:41;6.8;;;4.41;;
32451;SDS011;45528;52.102;5.242;2023-04-28T03:56:17;8.1;;;5.0;;
32451;SDS011;45528;52.102;5.242;2023-04-28T03:59:30;8.9;;;4.91;;
32451;SDS011;45528;52.102;5.242;2023-04-28T04:01:07;10.21;;;4.91;;
32451;SDS011;45528;52.102;5.242;2023-04-28T04:02:43;7.2;;;5.0;;
32451;SDS011;45528;52.102;5.242;2023-04-28T04:05:55;9.71;;;5.2;;
32451;SDS011;45528;52.102;5.242;2023-04-28T04:07:31;10.21;;;5.6;;
32451;SDS011;45528;52.102;5.242;2023-04-28T04:09:07;10.8;;;4.91;;
32451;SDS011;45528;52.102;5.242;2023-04-28T04:12:19;8.9;;;4.91;;
32451;SDS011;45528;52.102;5.242;2023-04-28T04:13:56;7.9;;;4.91;;
32451;SDS011;45528;52.102;5.242;2023-04-28T04:15:32;7.2;;;4.91;;
32451;SDS011;45528;52.102;5.242;2023-04-28T04:17:08;7.7;;;5.0;;
32451;SDS011;45528;52.102;5.242;2023-04-28T04:20:20;8.2;;;4.7;;
32451;SDS011;45528;52.102;5.242;2023-04-28T04:21:57;8.31;;;5.3;;
32451;SDS011;45528;52.102;5.242;2023-04-28T04:23:33;9.71;;;5.4;;
32451;SDS011;45528;52.102;5.242;2023-04-28T04:26:45;9.71;;;5.4;;
32451;SDS011;45528;52.102;5.242;2023-04-28T04:28:22;10.21;;;5.4;;
32451;SDS011;45528;52.102;5.242;2023-04-28T04:29:58;7.3;;;5.11;;
32451;SDS011;45528;52.102;5.242;2023-04-28T04:33:10;10.6;;;5.4;;
32451;SDS011;45528;52.102;5.242;2023-04-28T04:34:46;7.8;;;4.7;;
32451;SDS011;45528;52.102;5.242;2023-04-28T04:36:22;8.4;;;5.2;;
32451;SDS011;45528;52.102;5.242;2023-04-28T04:39:34;8.0;;;5.11;;
32451;SDS011;45528;52.102;5.242;2023-04-28T04:41:11;7.8;;;4.91;;
32451;SDS011;45528;52.102;5.242;2023-04-28T04:42:47;8.1;;;5.7;;
32451;SDS011;45528;52.102;5.242;2023-04-28T04:44:23;8.5;;;5.2;;
32451;SDS011;45528;52.102;5.242;2023-04-28T04:47:35;12.4;;;5.7;;
32451;SDS011;45528;52.102;5.242;2023-04-28T04:49:11;10.3;;;5.5;;
32451;SDS011;45528;52.102;5.242;2023-04-28T04:50:47;8.81;;;5.7;;
32451;SDS011;45528;52.102;5.242;2023-04-28T04:54:00;10.8;;;5.8;;
32451;SDS011;45528;52.102;5.242;2023-04-28T04:55:36;8.4;;;5.4;;
32451;SDS011;45528;52.102;5.242;2023-04-28T04:57:12;10.7;;;5.7;;
32451;SDS011;45528;52.102;5.242;2023-04-28T05:00:27;8.71;;;5.6;;
32451;SDS011;45528;52.102;5.242;2023-04-28T05:02:03;9.81;;;6.4;;
32451;SDS011;45528;52.102;5.242;2023-04-28T05:03:39;9.81;;;6.0;;
32451;SDS011;45528;52.102;5.242;2023-04-28T05:05:16;10.21;;;6.1;;
32451;SDS011;45528;52.102;5.242;2023-04-28T05:08:28;10.4;;;5.8;;
32451;SDS011;45528;52.102;5.242;2023-04-28T05:10:04;11.0;;;5.9;;
32451;SDS011;45528;52.102;5.242;2023-04-28T05:11:41;9.6;;;5.8;;
32451;SDS011;45528;52.102;5.242;2023-04-28T05:14:53;10.4;;;6.1;;
32451;SDS011;45528;52.102;5.242;2023-04-28T05:16:29;11.3;;;6.7;;
32451;SDS011;45528;52.102;5.242;2023-04-28T05:18:05;13.5;;;6.7;;
32451;SDS011;45528;52.102;5.242;2023-04-28T05:21:18;10.7;;;6.2;;
32451;SDS011;45528;52.102;5.242;2023-04-28T05:22:54;10.5;;;6.5;;
32451;SDS011;45528;52.102;5.242;2023-04-28T05:24:30;11.2;;;6.9;;
32451;SDS011;45528;52.102;5.242;2023-04-28T05:27:42;10.3;;;6.6;;
32451;SDS011;45528;52.102;5.242;2023-04-28T05:29:18;10.7;;;6.9;;
32451;SDS011;45528;52.102;5.242;2023-04-28T05:30:54;10.6;;;7.0;;
32451;SDS011;45528;52.102;5.242;2023-04-28T05:32:31;10.6;;;7.4;;
32451;SDS011;45528;52.102;5.242;2023-04-28T05:35:45;11.4;;;7.7;;
32451;SDS011;45528;52.102;5.242;2023-04-28T05:37:21;12.9;;;7.6;;
32451;SDS011;45528;52.102;5.242;2023-04-28T05:38:58;14.2;;;8.0;;
32451;SDS011;45528;52.102;5.242;2023-04-28T05:42:10;12.6;;;7.5;;
32451;SDS011;45528;52.102;5.242;2023-04-28T05:43:46;11.3;;;7.3;;
32451;SDS011;45528;52.102;5.242;2023-04-28T05:45:23;12.0;;;8.1;;
32451;SDS011;45528;52.102;5.242;2023-04-28T05:48:36;14.7;;;7.8;;
32451;SDS011;45528;52.102;5.242;2023-04-28T05:50:12;13.6;;;7.9;;
32451;SDS011;45528;52.102;5.242;2023-04-28T05:51:49;14.5;;;8.31;;
32451;SDS011;45528;52.102;5.242;2023-04-28T05:53:25;14.9;;;8.2;;
32451;SDS011;45528;52.102;5.242;2023-04-28T05:56:38;12.1;;;8.5;;
32451;SDS011;45528;52.102;5.242;2023-04-28T05:58:14;11.9;;;8.31;;
32451;SDS011;45528;52.102;5.242;2023-04-28T05:59:50;14.5;;;9.5;;
32451;SDS011;45528;52.102;5.242;2023-04-28T06:03:02;12.8;;;8.9;;
32451;SDS011;45528;52.102;5.242;2023-04-28T06:04:40;15.5;;;8.71;;
32451;SDS011;45528;52.102;5.242;2023-04-28T06:06:16;12.1;;;8.4;;
32451;SDS011;45528;52.102;5.242;2023-04-28T06:09:29;14.8;;;9.0;;
32451;SDS011;45528;52.102;5.242;2023-04-28T06:11:05;14.5;;;8.81;;
32451;SDS011;45528;52.102;5.242;2023-04-28T06:12:41;14.9;;;9.0;;
32451;SDS011;45528;52.102;5.242;2023-04-28T06:14:17;14.9;;;9.31;;
32451;SDS011;45528;52.102;5.242;2023-04-28T06:17:29;14.0;;;9.31;;
32451;SDS011;45528;52.102;5.242;2023-04-28T06:19:05;16.7;;;9.6;;
32451;SDS011;45528;52.102;5.242;2023-04-28T06:20:41;15.3;;;9.21;;
32451;SDS011;45528;52.102;5.242;2023-04-28T06:23:54;16.3;;;10.1;;
32451;SDS011;45528;52.102;5.242;2023-04-28T06:25:30;15.9;;;9.31;;
32451;SDS011;45528;52.102;5.242;2023-04-28T06:27:06;14.7;;;9.6;;
32451;SDS011;45528;52.102;5.242;2023-04-28T06:30:19;15.1;;;9.71;;
32451;SDS011;45528;52.102;5.242;2023-04-28T06:31:57;13.6;;;9.21;;
32451;SDS011;45528;52.102;5.242;2023-04-28T06:33:33;15.6;;;9.9;;
32451;SDS011;45528;52.102;5.242;2023-04-28T06:36:46;18.2;;;10.9;;
32451;SDS011;45528;52.102;5.242;2023-04-28T06:38:22;15.8;;;10.6;;
32451;SDS011;45528;52.102;5.242;2023-04-28T06:39:58;19.3;;;10.5;;
32451;SDS011;45528;52.102;5.242;2023-04-28T06:41:34;15.3;;;10.9;;
32451;SDS011;45528;52.102;5.242;2023-04-28T06:44:46;17.8;;;11.6;;
32451;SDS011;45528;52.102;5.242;2023-04-28T06:46:22;19.8;;;11.8;;
32451;SDS011;45528;52.102;5.242;2023-04-28T06:47:59;16.8;;;11.5;;
32451;SDS011;45528;52.102;5.242;2023-04-28T06:51:10;19.5;;;10.9;;
32451;SDS011;45528;52.102;5.242;2023-04-28T06:52:46;18.61;;;11.4;;
32451;SDS011;45528;52.102;5.242;2023-04-28T06:54:22;20.41;;;12.5;;
32451;SDS011;45528;52.102;5.242;2023-04-28T06:57:35;17.61;;;12.2;;
32451;SDS011;45528;52.102;5.242;2023-04-28T06:59:11;21.1;;;11.9;;
32451;SDS011;45528;52.102;5.242;2023-04-28T07:00:48;16.4;;;10.9;;
32451;SDS011;45528;52.102;5.242;2023-04-28T07:02:24;20.2;;;11.6;;
32451;SDS011;45528;52.102;5.242;2023-04-28T07:05:36;20.7;;;12.7;;
32451;SDS011;45528;52.102;5.242;2023-04-28T07:07:12;16.5;;;12.2;;
32451;SDS011;45528;52.102;5.242;2023-04-28T07:08:48;17.5;;;11.7;;
32451;SDS011;45528;52.102;5.242;2023-04-28T07:12:01;18.41;;;12.6;;
32451;SDS011;45528;52.102;5.242;2023-04-28T07:13:38;17.7;;;12.0;;
32451;SDS011;45528;52.102;5.242;2023-04-28T07:15:14;17.8;;;11.6;;
32451;SDS011;45528;52.102;5.242;2023-04-28T07:18:26;17.61;;;12.1;;
32451;SDS011;45528;52.102;5.242;2023-04-28T07:20:02;17.61;;;12.1;;
32451;SDS011;45528;52.102;5.242;2023-04-28T07:21:39;20.3;;;12.4;;
32451;SDS011;45528;52.102;5.242;2023-04-28T07:24:51;21.5;;;12.7;;
32451;SDS011;45528;52.102;5.242;2023-04-28T07:26:29;21.0;;;12.4;;
32451;SDS011;45528;52.102;5.242;2023-04-28T07:28:05;19.61;;;12.9;;
32451;SDS011;45528;52.102;5.242;2023-04-28T07:29:42;19.8;;;12.6;;
32451;SDS011;45528;52.102;5.242;2023-04-28T07:34:30;20.3;;;13.1;;
32451;SDS011;45528;52.102;5.242;2023-04-28T07:36:06;18.91;;;12.8;;
32451;SDS011;45528;52.102;5.242;2023-04-28T07:39:19;19.7;;;12.9;;
32451;SDS011;45528;52.102;5.242;2023-04-28T07:40:55;21.4;;;13.2;;
32451;SDS011;45528;52.102;5.242;2023-04-28T07:42:31;19.7;;;12.8;;
32451;SDS011;45528;52.102;5.242;2023-04-28T07:45:43;19.7;;;12.8;;
32451;SDS011;45528;52.102;5.242;2023-04-28T07:47:19;19.7;;;13.2;;
32451;SDS011;45528;52.102;5.242;2023-04-28T07:48:55;22.7;;;13.4;;
32451;SDS011;45528;52.102;5.242;2023-04-28T07:50:32;18.3;;;13.1;;
32451;SDS011;45528;52.102;5.242;2023-04-28T07:53:45;20.2;;;13.6;;
32451;SDS011;45528;52.102;5.242;2023-04-28T07:55:21;21.6;;;14.3;;
32451;SDS011;45528;52.102;5.242;2023-04-28T07:56:57;20.6;;;13.4;;
32451;SDS011;45528;52.102;5.242;2023-04-28T08:00:09;24.1;;;13.3;;
32451;SDS011;45528;52.102;5.242;2023-04-28T08:01:46;21.3;;;13.6;;
32451;SDS011;45528;52.102;5.242;2023-04-28T08:03:22;19.7;;;13.4;;
32451;SDS011;45528;52.102;5.242;2023-04-28T08:06:35;19.91;;;13.6;;
32451;SDS011;45528;52.102;5.242;2023-04-28T08:08:11;21.2;;;13.3;;
32451;SDS011;45528;52.102;5.242;2023-04-28T08:09:47;21.0;;;14.2;;
32451;SDS011;45528;52.102;5.242;2023-04-28T08:13:00;20.0;;;13.6;;
32451;SDS011;45528;52.102;5.242;2023-04-28T08:14:36;19.91;;;14.3;;
32451;SDS011;45528;52.102;5.242;2023-04-28T08:16:13;22.5;;;14.4;;
32451;SDS011;45528;52.102;5.242;2023-04-28T08:17:49;23.6;;;14.8;;
32451;SDS011;45528;52.102;5.242;2023-04-28T08:21:02;25.3;;;15.7;;
32451;SDS011;45528;52.102;5.242;2023-04-28T08:22:38;20.2;;;14.9;;
32451;SDS011;45528;52.102;5.242;2023-04-28T08:24:14;22.3;;;15.8;;
32451;SDS011;45528;52.102;5.242;2023-04-28T08:27:26;23.6;;;17.3;;
32451;SDS011;45528;52.102;5.242;2023-04-28T08:29:03;25.7;;;17.11;;
32451;SDS011;45528;52.102;5.242;2023-04-28T08:30:39;24.8;;;17.41;;
32451;SDS011;45528;52.102;5.242;2023-04-28T08:33:51;29.2;;;18.2;;
32451;SDS011;45528;52.102;5.242;2023-04-28T08:35:27;28.1;;;18.91;;
32451;SDS011;45528;52.102;5.242;2023-04-28T08:37:05;28.7;;;20.0;;
32451;SDS011;45528;52.102;5.242;2023-04-28T08:38:41;28.6;;;20.41;;
32451;SDS011;45528;52.102;5.242;2023-04-28T08:41:55;29.2;;;21.0;;
32451;SDS011;45528;52.102;5.242;2023-04-28T08:43:31;27.7;;;19.41;;
32451;SDS011;45528;52.102;5.242;2023-04-28T08:45:08;28.3;;;20.3;;
32451;SDS011;45528;52.102;5.242;2023-04-28T08:48:28;28.1;;;21.5;;
32451;SDS011;45528;52.102;5.242;2023-04-28T08:50:13;28.7;;;21.2;;
32451;SDS011;45528;52.102;5.242;2023-04-28T08:51:55;31.6;;;21.3;;
32451;SDS011;45528;52.102;5.242;2023-04-28T08:53:36;29.4;;;20.9;;
32451;SDS011;45528;52.102;5.242;2023-04-28T08:56:51;29.7;;;20.8;;
32451;SDS011;45528;52.102;5.242;2023-04-28T08:58:27;29.7;;;22.3;;
32451;SDS011;45528;52.102;5.242;2023-04-28T09:00:03;32.71;;;23.3;;
32451;SDS011;45528;52.102;5.242;2023-04-28T09:01:40;32.1;;;22.9;;
32451;SDS011;45528;52.102;5.242;2023-04-28T09:04:52;33.21;;;24.3;;
32451;SDS011;45528;52.102;5.242;2023-04-28T09:06:30;29.5;;;22.0;;
32451;SDS011;45528;52.102;5.242;2023-04-28T09:08:07;30.6;;;21.3;;
32451;SDS011;45528;52.102;5.242;2023-04-28T09:11:20;35.81;;;23.6;;
32451;SDS011;45528;52.102;5.242;2023-04-28T09:12:56;30.0;;;23.0;;
32451;SDS011;45528;52.102;5.242;2023-04-28T09:14:32;31.6;;;23.3;;
32451;SDS011;45528;52.102;5.242;2023-04-28T09:17:47;32.6;;;24.1;;
32451;SDS011;45528;52.102;5.242;2023-04-28T09:19:27;30.7;;;22.9;;
32451;SDS011;45528;52.102;5.242;2023-04-28T09:21:08;33.3;;;22.9;;
32451;SDS011;45528;52.102;5.242;2023-04-28T09:22:44;30.0;;;23.6;;
32451;SDS011;45528;52.102;5.242;2023-04-28T09:26:06;34.9;;;23.5;;
32451;SDS011;45528;52.102;5.242;2023-04-28T09:27:43;32.0;;;23.9;;
32451;SDS011;45528;52.102;5.242;2023-04-28T09:29:19;33.6;;;23.8;;
32451;SDS011;45528;52.102;5.242;2023-04-28T09:30:55;31.0;;;22.5;;
32451;SDS011;45528;52.102;5.242;2023-04-28T09:34:07;36.21;;;23.8;;
32451;SDS011;45528;52.102;5.242;2023-04-28T09:35:44;31.4;;;22.9;;
32451;SDS011;45528;52.102;5.242;2023-04-28T09:37:20;29.7;;;22.5;;
32451;SDS011;45528;52.102;5.242;2023-04-28T09:40:47;31.9;;;21.2;;
32451;SDS011;45528;52.102;5.242;2023-04-28T09:42:30;31.2;;;20.6;;
32451;SDS011;45528;52.102;5.242;2023-04-28T09:44:09;27.3;;;20.2;;
32451;SDS011;45528;52.102;5.242;2023-04-28T09:45:46;26.7;;;20.7;;
32451;SDS011;45528;52.102;5.242;2023-04-28T09:48:59;25.1;;;19.8;;
32451;SDS011;45528;52.102;5.242;2023-04-28T09:50:38;25.6;;;19.5;;
32451;SDS011;45528;52.102;5.242;2023-04-28T09:52:15;22.7;;;17.8;;
32451;SDS011;45528;52.102;5.242;2023-04-28T09:55:28;24.8;;;18.3;;
32451;SDS011;45528;52.102;5.242;2023-04-28T09:57:08;22.7;;;17.5;;
32451;SDS011;45528;52.102;5.242;2023-04-28T09:58:45;22.9;;;17.5;;
32451;SDS011;45528;52.102;5.242;2023-04-28T10:00:25;24.4;;;18.7;;
32451;SDS011;45528;52.102;5.242;2023-04-28T10:03:40;21.5;;;18.0;;
32451;SDS011;45528;52.102;5.242;2023-04-28T10:05:17;21.9;;;18.61;;
32451;SDS011;45528;52.102;5.242;2023-04-28T10:06:54;22.0;;;17.41;;
32451;SDS011;45528;52.102;5.242;2023-04-28T10:10:09;24.9;;;19.2;;
32451;SDS011;45528;52.102;5.242;2023-04-28T10:11:46;27.6;;;19.61;;
32451;SDS011;45528;52.102;5.242;2023-04-28T10:13:22;23.6;;;17.7;;
32451;SDS011;45528;52.102;5.242;2023-04-28T10:14:59;23.3;;;18.5;;
32451;SDS011;45528;52.102;5.242;2023-04-28T10:18:13;23.3;;;18.5;;
32451;SDS011;45528;52.102;5.242;2023-04-28T10:19:51;26.5;;;18.7;;
32451;SDS011;45528;52.102;5.242;2023-04-28T10:21:28;23.3;;;18.3;;
32451;SDS011;45528;52.102;5.242;2023-04-28T10:26:01;24.5;;;16.9;;
32451;SDS011;45528;52.102;5.242;2023-04-28T10:27:45;22.5;;;17.8;;
32451;SDS011;45528;52.102;5.242;2023-04-28T10:31:08;24.3;;;17.3;;
32451;SDS011;45528;52.102;5.242;2023-04-28T10:32:45;23.6;;;18.2;;
32451;SDS011;45528;52.102;5.242;2023-04-28T10:34:23;24.6;;;18.7;;
32451;SDS011;45528;52.102;5.242;2023-04-28T10:35:59;22.7;;;18.11;;
32451;SDS011;45528;52.102;5.242;2023-04-28T10:40:49;26.1;;;19.91;;
32451;SDS011;45528;52.102;5.242;2023-04-28T10:42:58;25.5;;;19.11;;
32451;SDS011;45528;52.102;5.242;2023-04-28T10:44:41;25.9;;;19.11;;
32451;SDS011;45528;52.102;5.242;2023-04-28T10:46:17;24.8;;;18.91;;
32451;SDS011;45528;52.102;5.242;2023-04-28T10:50:09;27.5;;;19.8;;
32451;SDS011;45528;52.102;5.242;2023-04-28T10:51:46;27.5;;;20.5;;
32451;SDS011;45528;52.102;5.242;2023-04-28T10:53:39;27.5;;;20.5;;
32451;SDS011;45528;52.102;5.242;2023-04-28T10:55:42;26.7;;;20.0;;
32451;SDS011;45528;52.102;5.242;2023-04-28T10:57:19;27.3;;;18.8;;
32451;SDS011;45528;52.102;5.242;2023-04-28T10:58:56;28.1;;;19.61;;
32451;SDS011;45528;52.102;5.242;2023-04-28T11:02:40;29.1;;;19.8;;
32451;SDS011;45528;52.102;5.242;2023-04-28T11:04:17;31.0;;;20.5;;
32451;SDS011;45528;52.102;5.242;2023-04-28T11:06:16;28.6;;;19.61;;
32451;SDS011;45528;52.102;5.242;2023-04-28T11:08:33;26.9;;;20.0;;
32451;SDS011;45528;52.102;5.242;2023-04-28T11:10:08;27.5;;;19.5;;
32451;SDS011;45528;52.102;5.242;2023-04-28T11:12:02;25.1;;;18.2;;
32451;SDS011;45528;52.102;5.242;2023-04-28T11:13:40;24.7;;;18.0;;
32451;SDS011;45528;52.102;5.242;2023-04-28T11:16:53;23.0;;;16.9;;
32451;SDS011;45528;52.102;5.242;2023-04-28T11:18:32;25.3;;;17.0;;
32451;SDS011;45528;52.102;5.242;2023-04-28T11:20:23;21.6;;;15.4;;
32451;SDS011;45528;52.102;5.242;2023-04-28T11:22:02;23.4;;;15.2;;
32451;SDS011;45528;52.102;5.242;2023-04-28T11:25:27;24.0;;;14.3;;
32451;SDS011;45528;52.102;5.242;2023-04-28T11:27:03;21.1;;;13.6;;
32451;SDS011;45528;52.102;5.242;2023-04-28T11:28:49;22.1;;;14.2;;
32451;SDS011;45528;52.102;5.242;2023-04-28T11:30:26;22.0;;;13.7;;
32451;SDS011;45528;52.102;5.242;2023-04-28T11:33:39;21.3;;;13.0;;
32451;SDS011;45528;52.102;5.242;2023-04-28T11:35:17;18.0;;;11.4;;
32451;SDS011;45528;52.102;5.242;2023-04-28T11:36:53;15.9;;;11.4;;
32451;SDS011;45528;52.102;5.242;2023-04-28T11:40:18;17.3;;;10.6;;
32451;SDS011;45528;52.102;5.242;2023-04-28T11:41:54;18.3;;;10.7;;
32451;SDS011;45528;52.102;5.242;2023-04-28T11:43:31;17.0;;;10.4;;
32451;SDS011;45528;52.102;5.242;2023-04-28T11:45:07;14.5;;;9.1;;
32451;SDS011;45528;52.102;5.242;2023-04-28T11:48:25;14.9;;;9.21;;
32451;SDS011;45528;52.102;5.242;2023-04-28T11:50:02;13.0;;;8.6;;
32451;SDS011;45528;52.102;5.242;2023-04-28T11:51:38;11.8;;;8.4;;
32451;SDS011;45528;52.102;5.242;2023-04-28T11:53:14;12.4;;;8.2;;
32451;SDS011;45528;52.102;5.242;2023-04-28T11:56:35;12.2;;;8.2;;
32451;SDS011;45528;52.102;5.242;2023-04-28T11:58:16;12.8;;;7.0;;
32451;SDS011;45528;52.102;5.242;2023-04-28T12:00:10;13.3;;;6.6;;
32451;SDS011;45528;52.102;5.242;2023-04-28T12:01:48;12.9;;;7.0;;
32451;SDS011;45528;52.102;5.242;2023-04-28T12:05:04;9.6;;;5.5;;
32451;SDS011;45528;52.102;5.242;2023-04-28T12:06:41;7.2;;;4.8;;
32451;SDS011;45528;52.102;5.242;2023-04-28T12:08:25;7.6;;;3.8;;
32451;SDS011;45528;52.102;5.242;2023-04-28T12:10:10;6.6;;;3.5;;
32451;SDS011;45528;52.102;5.242;2023-04-28T12:13:30;7.1;;;3.4;;
32451;SDS011;45528;52.102;5.242;2023-04-28T12:15:08;10.21;;;6.1;;
32451;SDS011;45528;52.102;5.242;2023-04-28T12:16:44;5.8;;;3.5;;
32451;SDS011;45528;52.102;5.242;2023-04-28T12:18:21;4.1;;;2.6;;
32451;SDS011;45528;52.102;5.242;2023-04-28T12:21:35;3.4;;;2.31;;
32451;SDS011;45528;52.102;5.242;2023-04-28T12:23:12;3.3;;;2.31;;
32451;SDS011;45528;52.102;5.242;2023-04-28T12:25:01;3.6;;;1.7;;
32451;SDS011;45528;52.102;5.242;2023-04-28T12:28:14;3.7;;;2.21;;
32451;SDS011;45528;52.102;5.242;2023-04-28T12:29:51;4.0;;;2.21;;
32451;SDS011;45528;52.102;5.242;2023-04-28T12:31:27;3.9;;;2.4;;
32451;SDS011;45528;52.102;5.242;2023-04-28T12:33:03;3.0;;;2.0;;
32451;SDS011;45528;52.102;5.242;2023-04-28T12:36:17;3.8;;;2.5;;
32451;SDS011;45528;52.102;5.242;2023-04-28T12:37:54;4.3;;;3.0;;
32451;SDS011;45528;52.102;5.242;2023-04-28T12:39:31;4.41;;;3.2;;
32451;SDS011;45528;52.102;5.242;2023-04-28T12:42:43;5.11;;;4.1;;
32451;SDS011;45528;52.102;5.242;2023-04-28T12:44:20;6.1;;;4.41;;
32451;SDS011;45528;52.102;5.242;2023-04-28T12:45:56;5.9;;;4.41;;
32451;SDS011;45528;52.102;5.242;2023-04-28T12:49:07;5.0;;;4.2;;
32451;SDS011;45528;52.102;5.242;2023-04-28T12:50:45;5.9;;;4.61;;